createdAt,value
2023-03-06T00:00:25.179Z,17.60
2023-03-06T00:02:52.295Z,15.38
2023-03-06T00:05:19.294Z,13.63
2023-03-06T00:07:45.750Z,11.95
2023-03-06T00:10:15.662Z,17.45
2023-03-06T00:12:42.558Z,16.00
2023-03-06T00:15:09.806Z,13.50
2023-03-06T00:17:36.614Z,15.73
2023-03-06T00:20:04.465Z,11.13
2023-03-06T00:22:30.890Z,13.15
2023-03-06T00:24:57.277Z,14.77
2023-03-06T00:27:26.114Z,14.30
2023-03-06T00:29:57.005Z,14.88
2023-03-06T00:32:25.243Z,14.00
2023-03-06T00:34:52.733Z,15.85
2023-03-06T00:37:19.852Z,13.73
2023-03-06T00:39:46.629Z,12.73
2023-03-06T00:42:13.289Z,13.52
2023-03-06T00:44:39.698Z,12.60
2023-03-06T00:47:06.290Z,12.60
2023-03-06T00:49:33.003Z,10.90
2023-03-06T00:51:59.744Z,9.93
2023-03-06T00:54:26.159Z,10.77
2023-03-06T00:56:52.517Z,11.23
2023-03-06T00:59:18.936Z,11.63
2023-03-06T01:01:45.407Z,11.48
2023-03-06T01:04:13.481Z,11.52
2023-03-06T01:06:40.789Z,9.45
2023-03-06T01:09:07.286Z,9.80
2023-03-06T01:11:34.031Z,10.13
2023-03-06T01:14:00.729Z,11.95
2023-03-06T01:16:27.113Z,12.48
2023-03-06T01:18:53.514Z,11.10
2023-03-06T01:21:20.028Z,13.52
2023-03-06T01:23:47.303Z,14.48
2023-03-06T01:26:14.140Z,16.88
2023-03-06T01:28:40.766Z,18.45
2023-03-06T01:31:08.559Z,18.52
2023-03-06T01:33:35.368Z,18.35
2023-03-06T01:36:10.664Z,17.55
2023-03-06T01:38:37.113Z,22.52
2023-03-06T01:41:04.775Z,21.02
2023-03-06T01:43:36.106Z,19.77
2023-03-06T01:46:33.779Z,20.90
2023-03-06T01:49:09.217Z,23.08
2023-03-06T01:51:40.798Z,22.50
2023-03-06T01:54:15.860Z,24.50
2023-03-06T01:56:45.819Z,25.48
2023-03-06T01:59:12.712Z,20.33
2023-03-06T02:01:41.114Z,21.73
2023-03-06T02:04:09.698Z,20.52
2023-03-06T02:06:39.135Z,22.75
2023-03-06T02:09:06.499Z,22.63
2023-03-06T02:11:33.823Z,22.83
2023-03-06T02:14:00.761Z,23.75
2023-03-06T02:16:30.654Z,26.05
2023-03-06T02:19:00.103Z,22.45
2023-03-06T02:21:36.790Z,22.20
2023-03-06T02:24:22.054Z,24.35
2023-03-06T02:26:49.803Z,24.00
2023-03-06T02:29:27.003Z,23.75
2023-03-06T02:31:55.574Z,23.15
2023-03-06T02:34:22.535Z,23.02
2023-03-06T02:36:52.835Z,20.98
2023-03-06T02:39:23.623Z,22.40
2023-03-06T02:41:50.054Z,20.40
2023-03-06T02:44:17.678Z,20.02
2023-03-06T02:46:44.037Z,19.23
2023-03-06T02:49:10.558Z,19.30
2023-03-06T02:51:36.926Z,17.67
2023-03-06T02:54:03.483Z,18.10
2023-03-06T02:56:29.953Z,17.02
2023-03-06T02:58:57.065Z,16.42
2023-03-06T03:01:24.739Z,16.95
2023-03-06T03:03:51.920Z,17.50
2023-03-06T03:06:20.757Z,20.70
2023-03-06T03:08:48.646Z,20.48
2023-03-06T03:11:15.571Z,18.92
2023-03-06T03:13:43.806Z,22.77
2023-03-06T03:16:19.360Z,25.50
2023-03-06T03:18:47.665Z,26.52
2023-03-06T03:21:15.616Z,20.65
2023-03-06T03:23:42.110Z,22.35
2023-03-06T03:26:11.576Z,26.45
2023-03-06T03:28:41.715Z,24.95
2023-03-06T03:31:11.138Z,24.88
2023-03-06T03:33:38.143Z,27.65
2023-03-06T03:36:06.295Z,27.92
2023-03-06T03:38:34.778Z,27.38
2023-03-06T03:41:02.382Z,27.80
2023-03-06T03:43:30.043Z,27.70
2023-03-06T03:45:57.533Z,28.00
2023-03-06T03:48:24.086Z,25.25
2023-03-06T03:50:51.378Z,26.40
2023-03-06T03:53:19.991Z,28.63
2023-03-06T03:55:48.503Z,28.52
2023-03-06T03:58:17.301Z,29.27
2023-03-06T04:00:43.758Z,29.40
2023-03-06T04:03:13.659Z,27.83
2023-03-06T04:05:43.112Z,30.20
2023-03-06T04:08:11.852Z,26.13
2023-03-06T04:10:42.031Z,29.67
2023-03-06T04:13:10.310Z,28.90
2023-03-06T04:15:40.477Z,27.27
2023-03-06T04:18:07.287Z,28.27
2023-03-06T04:20:33.846Z,28.30
2023-03-06T04:23:00.843Z,29.90
2023-03-06T04:25:27.551Z,27.73
2023-03-06T04:27:54.009Z,29.38
2023-03-06T04:30:20.913Z,28.10
2023-03-06T04:32:47.530Z,27.83
2023-03-06T04:35:14.067Z,24.23
2023-03-06T04:37:50.725Z,24.67
2023-03-06T04:40:22.676Z,25.90
2023-03-06T04:42:49.529Z,29.50
2023-03-06T04:45:16.298Z,26.52
2023-03-06T04:47:42.899Z,30.20
2023-03-06T04:50:10.737Z,26.08
2023-03-06T04:52:37.221Z,24.13
2023-03-06T04:55:08.544Z,25.85
2023-03-06T04:57:36.771Z,26.73
2023-03-06T05:00:05.909Z,24.55
2023-03-06T05:02:33.124Z,28.02
2023-03-06T05:04:59.601Z,26.55
2023-03-06T05:07:26.101Z,28.98
2023-03-06T05:09:52.593Z,25.45
2023-03-06T05:12:18.982Z,26.15
2023-03-06T05:14:47.935Z,26.17
2023-03-06T05:17:14.428Z,23.23
2023-03-06T05:19:40.947Z,25.92
2023-03-06T05:22:07.372Z,21.33
2023-03-06T05:24:33.773Z,23.20
2023-03-06T05:27:00.151Z,27.52
2023-03-06T05:29:26.588Z,22.33
2023-03-06T05:31:53.302Z,25.90
2023-03-06T05:34:19.947Z,22.95
2023-03-06T05:36:47.251Z,24.75
2023-03-06T05:39:13.763Z,23.35
2023-03-06T05:41:40.471Z,25.27
2023-03-06T05:44:06.896Z,23.25
2023-03-06T05:46:33.344Z,24.73
2023-03-06T05:48:59.780Z,24.73
2023-03-06T05:51:26.645Z,25.73
2023-03-06T05:53:53.133Z,27.55
2023-03-06T05:56:21.667Z,27.98
2023-03-06T05:58:48.526Z,25.70
2023-03-06T06:01:17.995Z,25.85
2023-03-06T06:03:45.050Z,26.75
2023-03-06T06:06:14.741Z,29.30
2023-03-06T06:08:41.506Z,30.25
2023-03-06T06:11:09.809Z,26.98
2023-03-06T06:13:38.454Z,28.20
2023-03-06T06:16:09.599Z,31.30
2023-03-06T06:18:36.187Z,28.23
2023-03-06T06:21:07.185Z,31.48
2023-03-06T06:23:34.149Z,29.98
2023-03-06T06:26:02.292Z,30.85
2023-03-06T06:28:29.767Z,30.08
2023-03-06T06:30:56.870Z,32.78
2023-03-06T06:33:23.690Z,31.52
2023-03-06T06:35:51.203Z,35.47
2023-03-06T06:38:18.246Z,34.05
2023-03-06T06:40:54.048Z,33.28
2023-03-06T06:43:31.409Z,33.10
2023-03-06T06:46:18.697Z,35.78
2023-03-06T06:48:54.452Z,35.00
2023-03-06T06:51:22.497Z,34.92
2023-03-06T06:53:51.795Z,36.47
2023-03-06T06:56:18.280Z,41.13
2023-03-06T06:58:44.794Z,35.63
2023-03-06T07:01:13.290Z,36.03
2023-03-06T07:03:40.761Z,36.83
2023-03-06T07:06:07.350Z,34.42
2023-03-06T07:08:34.117Z,34.38
2023-03-06T07:11:10.619Z,34.53
2023-03-06T07:13:37.373Z,33.85
2023-03-06T07:16:04.057Z,30.63
2023-03-06T07:18:30.589Z,32.00
2023-03-06T07:20:58.436Z,32.17
2023-03-06T07:23:26.469Z,31.15
2023-03-06T07:25:54.375Z,33.22
2023-03-06T07:28:21.127Z,30.92
2023-03-06T07:30:47.653Z,30.38
2023-03-06T07:33:14.947Z,30.20
2023-03-06T07:35:42.626Z,33.42
2023-03-06T07:38:09.549Z,34.58
2023-03-06T07:40:36.222Z,29.63
2023-03-06T07:43:18.359Z,30.17
2023-03-06T07:45:59.397Z,30.73
2023-03-06T07:48:26.353Z,29.33
2023-03-06T07:51:04.366Z,30.70
2023-03-06T07:53:31.502Z,27.55
2023-03-06T07:55:58.305Z,33.03
2023-03-06T07:58:25.433Z,30.73
2023-03-06T08:00:52.088Z,32.25
2023-03-06T08:03:18.916Z,32.03
2023-03-06T08:05:45.519Z,37.22
2023-03-06T08:08:12.434Z,33.45
2023-03-06T08:10:38.877Z,35.38
2023-03-06T08:13:05.308Z,37.08
2023-03-06T08:15:31.722Z,33.45
2023-03-06T08:17:58.164Z,37.63
2023-03-06T08:20:25.116Z,36.58
2023-03-06T08:22:51.550Z,38.47
2023-03-06T08:25:18.179Z,39.15
2023-03-06T08:27:46.673Z,37.40
2023-03-06T08:30:13.662Z,36.92
2023-03-06T08:32:40.261Z,39.33
2023-03-06T08:35:07.882Z,46.63
2023-03-06T08:37:34.409Z,41.15
2023-03-06T08:40:03.491Z,39.63
2023-03-06T08:42:30.525Z,42.95
2023-03-06T08:44:56.952Z,44.58
2023-03-06T08:47:23.327Z,44.30
2023-03-06T08:49:49.735Z,43.63
2023-03-06T08:52:16.937Z,44.15
2023-03-06T08:54:43.335Z,35.15
2023-03-06T08:57:09.698Z,37.53
2023-03-06T08:59:36.877Z,41.42
2023-03-06T09:02:05.275Z,42.75
2023-03-06T09:04:31.836Z,41.72
2023-03-06T09:07:00.302Z,42.00
2023-03-06T09:09:26.669Z,45.40
2023-03-06T09:11:53.577Z,36.80
2023-03-06T09:14:20.010Z,40.90
2023-03-06T09:16:46.414Z,38.70
2023-03-06T09:19:12.793Z,38.25
2023-03-06T09:21:39.231Z,41.17
2023-03-06T09:24:05.829Z,42.50
2023-03-06T09:26:45.140Z,38.42
2023-03-06T09:29:13.347Z,41.75
2023-03-06T09:31:39.776Z,38.78
2023-03-06T09:34:06.174Z,43.35
2023-03-06T09:36:42.755Z,37.97
2023-03-06T09:39:15.940Z,39.25
2023-03-06T09:41:42.589Z,37.78
2023-03-06T09:44:18.529Z,37.15
2023-03-06T09:46:50.912Z,40.08
2023-03-06T09:49:51.537Z,36.72
2023-03-06T09:52:45.927Z,33.60
2023-03-06T09:55:19.395Z,31.60
2023-03-06T10:00:40.046Z,35.03
2023-03-06T10:03:33.228Z,32.33
2023-03-06T10:06:23.778Z,34.03
2023-03-06T10:09:01.334Z,31.17
2023-03-06T10:11:35.341Z,31.85
2023-03-06T10:14:22.956Z,29.35
2023-03-06T10:16:49.367Z,27.05
2023-03-06T10:19:18.644Z,29.90
2023-03-06T10:22:02.264Z,29.23
2023-03-06T10:24:50.652Z,26.38
2023-03-06T10:27:28.408Z,27.58
2023-03-06T10:30:04.397Z,29.02
2023-03-06T10:32:48.751Z,29.52
2023-03-06T10:35:25.494Z,26.40
2023-03-06T10:37:59.967Z,27.48
2023-03-06T10:40:35.291Z,24.05
2023-03-06T10:43:11.131Z,24.90
2023-03-06T10:45:53.122Z,22.52
2023-03-06T10:48:25.243Z,24.35
2023-03-06T10:50:53.382Z,20.27
2023-03-06T10:53:30.784Z,18.73
2023-03-06T10:55:59.405Z,19.02
2023-03-06T10:58:31.560Z,18.48
2023-03-06T11:01:19.558Z,17.60
2023-03-06T11:03:47.756Z,17.90
2023-03-06T11:06:15.432Z,16.92
2023-03-06T11:08:44.917Z,15.32
2023-03-06T11:11:14.052Z,15.32
2023-03-06T11:13:43.171Z,14.82
2023-03-06T11:16:25.868Z,15.05
2023-03-06T11:18:58.664Z,17.38
2023-03-06T11:21:33.553Z,14.63
2023-03-06T11:24:15.335Z,13.63
2023-03-06T11:26:48.547Z,12.95
2023-03-06T11:29:28.482Z,13.95
2023-03-06T11:32:03.195Z,14.73
2023-03-06T11:35:02.745Z,12.68
2023-03-06T11:37:31.856Z,15.93
2023-03-06T11:40:15.718Z,11.30
2023-03-06T11:42:49.623Z,13.90
2023-03-06T11:45:42.762Z,16.58
2023-03-06T11:48:15.255Z,15.25
2023-03-06T11:51:02.187Z,11.63
2023-03-06T11:53:39.258Z,10.18
2023-03-06T11:56:32.025Z,11.50
2023-03-06T11:59:21.565Z,11.35
2023-03-06T12:02:03.868Z,8.13
2023-03-06T12:05:01.350Z,7.90
2023-03-06T12:07:35.335Z,10.35
2023-03-06T12:10:18.490Z,9.70
2023-03-06T12:13:06.689Z,10.45
2023-03-06T12:16:10.837Z,7.75
2023-03-06T12:21:39.664Z,6.63
2023-03-06T12:24:26.031Z,7.85
2023-03-06T12:27:27.265Z,7.93
2023-03-06T12:30:03.171Z,6.13
2023-03-06T12:32:57.790Z,7.43
2023-03-06T12:35:43.270Z,6.72
2023-03-06T12:38:21.825Z,6.70
2023-03-06T12:40:51.353Z,6.20
2023-03-06T12:43:40.208Z,8.43
2023-03-06T12:46:15.140Z,5.60
2023-03-06T12:48:45.568Z,6.43
2023-03-06T12:51:17.048Z,5.28
2023-03-06T12:53:44.973Z,6.30
2023-03-06T12:56:15.303Z,6.65
2023-03-06T12:58:55.599Z,5.93
2023-03-06T13:01:33.797Z,5.45
2023-03-06T13:04:27.390Z,8.07
2023-03-06T13:07:28.913Z,6.05
2023-03-06T13:10:07.452Z,10.25
2023-03-06T13:12:55.483Z,7.63
2023-03-06T13:15:32.209Z,7.65
2023-03-06T13:17:59.395Z,7.50
2023-03-06T13:20:36.245Z,6.38
2023-03-06T13:23:33.722Z,7.15
2023-03-06T13:26:08.141Z,6.85
2023-03-06T13:28:47.804Z,7.43
2023-03-06T13:31:27.679Z,5.45
2023-03-06T13:34:01.781Z,5.07
2023-03-06T13:36:33.031Z,5.13
2023-03-06T13:39:05.483Z,4.63
2023-03-06T13:41:32.021Z,5.32
2023-03-06T13:44:01.364Z,5.72
2023-03-06T13:46:34.901Z,5.85
2023-03-06T13:49:11.010Z,5.32
2023-03-06T13:51:50.001Z,7.97
2023-03-06T13:54:39.128Z,9.70
2023-03-06T13:57:20.639Z,8.80
2023-03-06T14:00:03.172Z,10.73
2023-03-06T14:02:33.762Z,11.98
2023-03-06T14:05:11.807Z,12.77
2023-03-06T14:07:46.928Z,11.32
2023-03-06T14:10:13.271Z,12.35
2023-03-06T14:12:48.448Z,12.73
2023-03-06T14:15:28.662Z,17.10
2023-03-06T14:18:13.167Z,19.95
2023-03-06T14:20:53.642Z,18.10
2023-03-06T14:23:27.272Z,20.25
2023-03-06T14:26:02.670Z,19.45
2023-03-06T14:28:31.435Z,18.45
2023-03-06T14:48:15.142Z,17.48
2023-03-06T14:50:47.063Z,14.40
2023-03-06T14:53:21.057Z,12.75
2023-03-06T14:55:51.598Z,8.90
2023-03-06T14:58:21.876Z,7.82
2023-03-06T15:00:51.800Z,8.20
2023-03-06T15:03:25.068Z,8.98
2023-03-06T15:05:52.301Z,8.13
2023-03-06T15:08:25.304Z,9.57
2023-03-06T15:11:00.983Z,9.98
2023-03-06T15:13:29.394Z,14.98
2023-03-06T15:15:55.811Z,15.40
2023-03-06T15:18:29.614Z,12.05
2023-03-06T15:21:07.980Z,11.32
2023-03-06T15:23:43.059Z,12.63
2023-03-06T15:26:23.880Z,12.52
2023-03-06T15:29:08.252Z,15.40
2023-03-06T15:31:40.518Z,16.70
2023-03-06T15:34:07.099Z,15.18
2023-03-06T15:36:57.823Z,15.15
2023-03-06T15:39:39.673Z,20.98
2023-03-06T15:42:23.358Z,21.05
2023-03-06T15:47:17.551Z,23.08
2023-03-06T15:49:44.582Z,24.55
2023-03-06T15:52:11.034Z,27.08
2023-03-06T15:54:37.497Z,24.15
2023-03-06T15:57:05.952Z,26.77
2023-03-06T15:59:38.323Z,26.73
2023-03-06T16:02:17.599Z,28.23
2023-03-06T16:04:44.644Z,26.70
2023-03-06T16:07:11.976Z,22.92
2023-03-06T16:09:38.413Z,22.55
2023-03-06T16:12:05.615Z,20.95
2023-03-06T16:14:32.054Z,21.88
2023-03-06T16:16:59.463Z,23.70
2023-03-06T16:19:27.620Z,23.63
2023-03-06T16:21:55.527Z,24.48
2023-03-06T16:24:22.422Z,23.30
2023-03-06T16:26:51.163Z,22.65
2023-03-06T16:29:19.809Z,22.85
2023-03-06T16:31:46.581Z,22.10
2023-03-06T16:34:13.363Z,23.20
2023-03-06T16:36:40.524Z,26.27
2023-03-06T16:39:19.827Z,28.50
2023-03-06T16:41:46.387Z,27.58
2023-03-06T16:44:13.431Z,30.42
2023-03-06T16:46:42.572Z,27.90
2023-03-06T16:49:16.264Z,22.90
2023-03-06T16:51:43.007Z,23.50
2023-03-06T16:54:09.519Z,24.52
2023-03-06T16:56:36.425Z,25.13
2023-03-06T16:59:02.834Z,24.88
2023-03-06T17:01:29.283Z,27.90
2023-03-06T17:03:55.811Z,26.33
2023-03-06T17:06:22.838Z,27.80
2023-03-06T17:08:50.133Z,26.75
2023-03-06T17:11:17.715Z,25.33
2023-03-06T17:13:44.117Z,26.00
2023-03-06T17:16:16.232Z,26.85
2023-03-06T17:18:44.291Z,23.42
2023-03-06T17:21:12.372Z,25.15
2023-03-06T17:23:38.756Z,25.73
2023-03-06T17:26:08.308Z,26.20
2023-03-06T17:28:36.164Z,29.13
2023-03-06T17:31:10.379Z,27.08
2023-03-06T17:33:36.870Z,29.27
2023-03-06T17:36:03.494Z,26.23
2023-03-06T17:38:29.889Z,29.20
2023-03-06T17:40:56.313Z,27.63
2023-03-06T17:43:22.691Z,28.77
2023-03-06T17:45:49.153Z,26.63
2023-03-06T17:48:15.553Z,26.98
2023-03-06T17:50:41.958Z,26.60
2023-03-06T17:53:08.916Z,29.80
2023-03-06T17:55:37.991Z,32.72
2023-03-06T17:58:04.387Z,34.60
2023-03-06T18:00:31.286Z,32.95
2023-03-06T18:02:57.656Z,35.50
2023-03-06T18:05:24.060Z,33.88
2023-03-06T18:07:50.461Z,32.00
2023-03-06T18:10:16.892Z,31.20
2023-03-06T18:12:43.358Z,32.05
2023-03-06T18:15:09.937Z,32.65
2023-03-06T18:17:36.383Z,31.83
2023-03-06T18:20:03.253Z,28.27
2023-03-06T18:22:29.704Z,31.75
2023-03-06T18:24:56.085Z,32.95
2023-03-06T18:27:22.665Z,33.20
2023-03-06T18:29:49.508Z,30.50
2023-03-06T18:32:15.982Z,32.00
2023-03-06T18:34:42.443Z,27.80
2023-03-06T18:37:08.794Z,33.78
2023-03-06T18:39:35.280Z,28.60
2023-03-06T18:42:01.739Z,32.08
2023-03-06T18:44:28.182Z,27.38
2023-03-06T18:46:54.546Z,32.75
2023-03-06T18:49:21.940Z,29.80
2023-03-06T18:51:50.132Z,31.50
2023-03-06T18:54:16.602Z,28.83
2023-03-06T18:56:44.488Z,29.33
2023-03-06T18:59:18.220Z,34.58
2023-03-06T19:01:46.260Z,32.58
2023-03-06T19:04:12.989Z,30.23
2023-03-06T19:06:40.514Z,28.92
2023-03-06T19:09:07.797Z,31.98
2023-03-06T19:11:34.754Z,29.92
2023-03-06T19:14:01.349Z,29.67
2023-03-06T19:16:29.537Z,33.75
2023-03-06T19:18:56.244Z,31.10
2023-03-06T19:21:25.416Z,31.63
2023-03-06T19:23:52.430Z,30.70
2023-03-06T19:26:19.344Z,33.53
2023-03-06T19:28:46.907Z,28.25
2023-03-06T19:31:24.121Z,28.85
2023-03-06T19:33:52.922Z,31.00
2023-03-06T19:36:23.497Z,27.85
2023-03-06T19:38:53.754Z,27.90
2023-03-06T19:41:20.314Z,25.42
2023-03-06T19:43:52.226Z,27.70
2023-03-06T19:46:19.941Z,27.25
2023-03-06T19:48:46.682Z,28.63
2023-03-06T19:51:13.204Z,26.95
2023-03-06T19:53:40.630Z,30.30
2023-03-06T19:56:11.185Z,29.85
2023-03-06T19:58:38.196Z,25.55
2023-03-06T20:01:10.665Z,27.15
2023-03-06T20:03:37.159Z,28.93
2023-03-06T20:06:06.504Z,29.30
2023-03-06T20:08:32.915Z,30.58
2023-03-06T20:10:59.277Z,31.83
2023-03-06T20:13:25.666Z,31.05
2023-03-06T20:15:52.099Z,33.33
2023-03-06T20:18:18.516Z,33.03
2023-03-06T20:20:44.943Z,40.45
2023-03-06T20:23:11.609Z,35.63
2023-03-06T20:25:38.517Z,44.17
2023-03-06T20:28:05.377Z,38.15
2023-03-06T20:30:38.108Z,29.75
2023-03-06T20:33:05.070Z,30.67
2023-03-06T20:35:31.503Z,30.42
2023-03-06T20:37:57.943Z,37.58
2023-03-06T20:40:24.428Z,37.58
2023-03-06T20:42:50.841Z,36.10
2023-03-06T20:45:17.351Z,32.88
2023-03-06T20:47:46.990Z,31.58
2023-03-06T20:50:15.191Z,31.17
2023-03-06T20:52:41.595Z,33.72
2023-03-06T20:55:08.408Z,29.60
2023-03-06T20:57:34.969Z,30.98
2023-03-06T21:00:01.357Z,32.33
2023-03-06T21:02:27.785Z,31.35
2023-03-06T21:04:54.285Z,29.17
2023-03-06T21:07:20.687Z,28.50
2023-03-06T21:09:49.473Z,32.20
2023-03-06T21:12:16.334Z,29.30
2023-03-06T21:14:42.802Z,26.92
2023-03-06T21:17:09.374Z,32.50
2023-03-06T21:19:36.685Z,29.20
2023-03-06T21:22:03.404Z,34.45
2023-03-06T21:24:29.777Z,32.67
2023-03-06T21:26:56.229Z,30.20
2023-03-06T21:29:22.616Z,31.80
2023-03-06T21:31:48.986Z,32.92
2023-03-06T21:34:15.433Z,33.72
2023-03-06T21:36:42.834Z,33.92
2023-03-06T21:39:09.585Z,31.40
2023-03-06T21:41:37.682Z,35.25
2023-03-06T21:44:05.508Z,35.35
2023-03-06T21:46:32.910Z,34.72
2023-03-06T21:48:59.407Z,34.25
2023-03-06T21:51:26.965Z,37.22
2023-03-06T21:53:54.428Z,45.60
2023-03-06T21:56:24.925Z,38.40
2023-03-06T21:58:51.493Z,40.58
2023-03-06T22:01:23.062Z,45.85
2023-03-06T22:03:49.893Z,36.20
2023-03-06T22:06:19.205Z,45.15
2023-03-06T22:08:46.221Z,40.70
2023-03-06T22:11:15.914Z,39.72
2023-03-06T22:13:42.745Z,41.42
2023-03-06T22:16:09.692Z,36.92
2023-03-06T22:18:36.804Z,40.25
2023-03-06T22:21:08.283Z,38.60
2023-03-06T22:23:34.728Z,48.78
2023-03-06T22:26:03.937Z,41.63
2023-03-06T22:28:30.604Z,39.28
2023-03-06T22:31:13.252Z,37.75
2023-03-06T22:33:39.634Z,36.95
2023-03-06T22:36:08.964Z,43.75
2023-03-06T22:38:37.447Z,38.75
2023-03-06T22:41:04.841Z,37.45
2023-03-06T22:43:32.145Z,37.00
2023-03-06T22:46:03.657Z,37.70
2023-03-06T22:48:30.553Z,39.95
2023-03-06T22:51:01.986Z,39.90
2023-03-06T22:53:28.398Z,35.17
2023-03-06T22:55:58.141Z,35.60
2023-03-06T22:58:25.238Z,31.33
2023-03-06T23:00:51.739Z,34.47
2023-03-06T23:03:18.163Z,36.38
2023-03-06T23:05:44.711Z,32.00
2023-03-06T23:08:11.096Z,34.05
2023-03-06T23:10:40.657Z,31.90
2023-03-06T23:13:25.727Z,29.52
2023-03-06T23:16:10.772Z,30.80
2023-03-06T23:18:55.954Z,28.08
2023-03-06T23:21:41.552Z,30.02
2023-03-06T23:24:26.453Z,27.08
2023-03-06T23:26:53.295Z,27.08
2023-03-06T23:29:19.708Z,25.60
2023-03-06T23:31:46.432Z,26.67
2023-03-06T23:34:12.798Z,25.15
2023-03-06T23:36:39.220Z,23.20
2023-03-06T23:39:05.697Z,23.42
2023-03-06T23:41:32.161Z,22.48
2023-03-06T23:43:59.166Z,24.10
2023-03-06T23:46:25.571Z,19.50
2023-03-06T23:48:52.252Z,19.38
2023-03-06T23:51:21.140Z,17.88
2023-03-06T23:53:52.559Z,18.60
2023-03-06T23:56:19.111Z,18.90
2023-03-06T23:58:45.741Z,18.42
